Time;durP1;ratioP1;P1;durP2;ratioP2;P2;SDS_P1;SDS_P2;PMS_P1;PMS_P2;Temp;Humidity;BMP_temperature;BMP_pressure;BME280_temperature;BME280_humidity;BME280_pressure;Samples;Min_cycle;Max_cycle;Signal;HPM_P1;HPM_P2
2023/11/18 00:01:57;;;;;;;56.70;24.73;;;5.60;99.90;;;;;;4994452;28;20084;-80
2023/11/18 00:04:23;;;;;;;52.47;25.48;;;5.50;99.90;;;;;;4992963;28;20052;-81
2023/11/18 00:06:51;;;;;;;55.67;26.08;;;5.60;99.90;;;;;;4976319;28;20038;-81
2023/11/18 00:09:17;;;;;;;51.92;25.60;;;5.60;99.90;;;;;;4993138;28;20870;-80
2023/11/18 00:11:44;;;;;;;53.58;25.02;;;5.60;99.90;;;;;;4993328;28;20037;-81
2023/11/18 00:14:11;;;;;;;54.97;25.60;;;5.70;99.90;;;;;;4992179;28;20670;-82
2023/11/18 00:16:38;;;;;;;51.42;25.40;;;5.60;99.90;;;;;;4976100;28;20273;-80
2023/11/18 00:19:09;;;;;;;61.20;26.77;;;5.60;99.90;;;;;;4969536;28;20538;-82
2023/11/18 00:21:36;;;;;;;53.25;25.40;;;5.60;99.90;;;;;;4961585;28;20022;-78
2023/11/18 00:24:02;;;;;;;56.50;25.48;;;5.60;99.90;;;;;;4980460;28;20422;-81
2023/11/18 00:26:29;;;;;;;49.47;24.08;;;5.60;99.90;;;;;;4994328;28;20030;-80
2023/11/18 00:29:00;;;;;;;52.63;24.40;;;5.60;99.90;;;;;;4996230;28;20022;-80
2023/11/18 00:31:27;;;;;;;51.03;24.95;;;5.60;99.90;;;;;;4960990;28;20033;-78
2023/11/18 00:33:55;;;;;;;53.67;26.40;;;5.60;99.90;;;;;;4992669;28;20096;-82
2023/11/18 00:36:21;;;;;;;49.83;23.95;;;5.60;99.90;;;;;;4972765;28;20046;-81
2023/11/18 00:38:47;;;;;;;50.22;24.65;;;5.60;99.90;;;;;;4973940;28;20033;-80
2023/11/18 00:41:13;;;;;;;59.25;27.95;;;5.70;99.90;;;;;;4950211;28;20046;-77
2023/11/18 00:43:40;;;;;;;49.85;23.65;;;5.70;99.90;;;;;;4974547;28;20038;-82
2023/11/18 00:46:06;;;;;;;48.47;23.85;;;5.70;99.90;;;;;;4975920;28;20044;-82
2023/11/18 00:48:32;;;;;;;56.60;26.05;;;5.60;99.90;;;;;;4975425;28;20667;-81
2023/11/18 00:50:59;;;;;;;56.10;25.90;;;5.60;99.90;;;;;;4989698;28;20404;-81
2023/11/18 00:53:25;;;;;;;57.05;25.60;;;5.60;99.90;;;;;;4991852;28;20681;-80
2023/11/18 00:55:52;;;;;;;47.47;22.40;;;5.50;99.90;;;;;;4991986;28;20037;-81
2023/11/18 00:58:18;;;;;;;49.35;22.63;;;5.50;99.90;;;;;;4995124;28;20635;-79
2023/11/18 01:00:44;;;;;;;52.00;23.45;;;5.50;99.90;;;;;;5005886;28;20034;-81
2023/11/18 01:03:10;;;;;;;48.20;22.95;;;5.40;99.90;;;;;;4977407;28;20496;-82
2023/11/18 01:05:38;;;;;;;48.47;22.63;;;5.40;99.90;;;;;;4966987;28;20038;-80
2023/11/18 01:08:05;;;;;;;47.25;22.02;;;5.40;99.90;;;;;;4977798;28;20046;-82
2023/11/18 01:10:32;;;;;;;44.80;22.63;;;5.40;99.90;;;;;;4990968;28;20030;-80
2023/11/18 01:12:58;;;;;;;45.92;22.35;;;5.50;99.90;;;;;;4991508;28;20030;-76
2023/11/18 01:15:25;;;;;;;42.58;20.55;;;5.50;99.90;;;;;;4992412;28;20502;-82
2023/11/18 01:17:51;;;;;;;46.78;22.35;;;5.50;99.90;;;;;;4987305;28;20035;-81
2023/11/18 01:20:21;;;;;;;49.75;22.63;;;5.50;99.90;;;;;;4961958;28;20396;-80
2023/11/18 01:22:48;;;;;;;50.33;22.42;;;5.50;99.90;;;;;;4995583;28;20033;-81
2023/11/18 01:25:18;;;;;;;46.00;23.08;;;5.50;99.90;;;;;;4994351;28;20031;-82
2023/11/18 01:27:46;;;;;;;47.83;22.58;;;5.50;99.90;;;;;;4961979;28;20026;-79
2023/11/18 01:30:14;;;;;;;53.72;24.40;;;5.50;99.90;;;;;;4993756;28;20037;-77
2023/11/18 01:32:40;;;;;;;51.95;23.15;;;5.50;99.90;;;;;;4975671;28;20034;-82
2023/11/18 01:35:08;;;;;;;51.45;22.77;;;5.50;99.90;;;;;;4969268;28;20412;-80
2023/11/18 01:37:34;;;;;;;49.72;22.85;;;5.50;99.90;;;;;;4995894;28;20029;-81
2023/11/18 01:40:05;;;;;;;50.88;22.70;;;5.50;99.90;;;;;;4998186;28;20045;-80
2023/11/18 01:42:31;;;;;;;48.83;22.35;;;5.60;99.90;;;;;;4998234;28;20030;-81
2023/11/18 01:44:59;;;;;;;48.35;23.40;;;5.60;99.90;;;;;;4990630;28;20480;-79
2023/11/18 01:47:26;;;;;;;53.10;24.50;;;5.60;99.90;;;;;;4998171;28;20038;-76
2023/11/18 01:49:53;;;;;;;55.53;24.17;;;5.60;99.90;;;;;;4997032;28;20041;-77
2023/11/18 01:52:21;;;;;;;53.60;24.23;;;5.70;99.90;;;;;;4980835;28;20129;-77
2023/11/18 01:54:48;;;;;;;61.42;26.38;;;5.70;99.90;;;;;;4995991;28;20583;-76
2023/11/18 01:57:16;;;;;;;58.42;25.20;;;5.70;99.90;;;;;;4963858;28;20088;-79
2023/11/18 01:59:43;;;;;;;58.95;26.58;;;5.70;99.90;;;;;;4994527;28;20038;-80
2023/11/18 02:02:09;;;;;;;62.47;26.20;;;5.70;99.90;;;;;;4956490;28;20029;-74
2023/11/18 02:04:36;;;;;;;55.55;24.98;;;5.80;99.90;;;;;;4997661;28;20053;-78
2023/11/18 02:07:08;;;;;;;60.65;25.55;;;5.80;99.90;;;;;;4977568;28;20045;-82
2023/11/18 02:09:36;;;;;;;84.03;33.60;;;5.80;99.90;;;;;;4972733;28;20425;-75
2023/11/18 02:12:32;;;;;;;69.30;30.88;;;5.80;99.90;;;;;;4994087;28;20044;-78
2023/11/18 02:15:03;;;;;;;68.70;29.65;;;5.80;99.90;;;;;;4997615;28;20045;-79
2023/11/18 02:17:31;;;;;;;66.80;29.13;;;5.80;99.90;;;;;;5007940;28;20045;-81
2023/11/18 02:19:59;;;;;;;61.20;25.88;;;5.80;99.90;;;;;;4994854;28;20373;-80
2023/11/18 02:22:26;;;;;;;70.90;31.80;;;5.90;99.90;;;;;;4987984;28;20368;-82
2023/11/18 02:24:53;;;;;;;70.15;30.23;;;5.90;99.90;;;;;;4978240;28;20037;-81
2023/11/18 02:27:21;;;;;;;61.78;28.48;;;5.90;99.90;;;;;;4995666;28;20045;-81
2023/11/18 02:29:49;;;;;;;63.38;27.85;;;5.90;99.90;;;;;;4972379;28;20065;-76
2023/11/18 02:32:27;;;;;;;68.50;27.10;;;5.90;99.90;;;;;;4963217;28;20038;-80
2023/11/18 02:35:15;;;;;;;60.40;26.63;;;5.90;99.90;;;;;;4995396;28;20375;-82
2023/11/18 02:37:47;;;;;;;62.45;24.98;;;5.90;99.90;;;;;;4973614;28;20053;-81
2023/11/18 02:40:19;;;;;;;60.72;26.67;;;6.00;99.90;;;;;;4958528;28;20034;-80
2023/11/18 02:42:48;;;;;;;56.75;27.35;;;6.00;99.90;;;;;;4978132;28;20265;-79
2023/11/18 02:45:16;;;;;;;65.03;26.90;;;6.00;99.90;;;;;;4996485;28;20034;-82
2023/11/18 02:47:46;;;;;;;64.65;26.38;;;6.00;99.90;;;;;;4996588;28;20481;-75
2023/11/18 02:50:13;;;;;;;64.32;28.42;;;6.00;99.90;;;;;;4958522;28;20030;-81
2023/11/18 02:52:40;;;;;;;66.18;28.00;;;6.00;99.90;;;;;;4985617;28;20472;-81
2023/11/18 02:55:08;;;;;;;70.43;31.17;;;6.00;99.90;;;;;;4993706;28;20416;-82
2023/11/18 02:57:36;;;;;;;77.50;31.55;;;6.00;99.90;;;;;;4995201;28;20030;-78
2023/11/18 03:00:04;;;;;;;74.60;29.67;;;6.00;99.90;;;;;;4993883;28;20485;-79
2023/11/18 03:02:31;;;;;;;78.35;30.70;;;6.00;99.90;;;;;;4988069;28;20038;-81
2023/11/18 03:04:58;;;;;;;70.80;28.42;;;6.00;99.90;;;;;;4993580;28;20045;-80
2023/11/18 03:07:26;;;;;;;78.10;32.28;;;6.00;99.90;;;;;;4960050;28;20038;-82
2023/11/18 03:09:57;;;;;;;77.90;32.03;;;6.00;99.90;;;;;;4979060;28;20508;-79
2023/11/18 03:12:27;;;;;;;85.40;29.73;;;6.00;99.90;;;;;;5005277;28;20378;-80
2023/11/18 03:14:53;;;;;;;70.85;28.27;;;6.00;99.90;;;;;;4961344;28;20065;-80
2023/11/18 03:17:20;;;;;;;94.38;30.65;;;6.00;99.90;;;;;;4993691;28;20045;-79
2023/11/18 03:19:46;;;;;;;81.00;29.25;;;6.00;99.90;;;;;;4996486;28;20018;-81
2023/11/18 03:22:13;;;;;;;94.80;34.55;;;6.00;99.90;;;;;;4976202;28;20045;-79
2023/11/18 03:24:39;;;;;;;84.82;30.85;;;6.00;99.90;;;;;;4969356;28;20497;-81
2023/11/18 03:27:08;;;;;;;84.43;32.20;;;6.00;99.90;;;;;;4996998;28;20392;-81
2023/11/18 03:29:35;;;;;;;95.82;36.95;;;6.00;99.90;;;;;;4996781;28;20037;-81
2023/11/18 03:32:02;;;;;;;112.07;37.65;;;6.00;99.90;;;;;;4977538;28;20052;-82
2023/11/18 03:34:28;;;;;;;90.30;32.25;;;6.00;99.90;;;;;;4992976;28;20033;-77
2023/11/18 03:36:56;;;;;;;78.97;31.60;;;6.00;99.90;;;;;;4976455;28;20048;-82
2023/11/18 03:39:23;;;;;;;77.20;31.50;;;6.00;99.90;;;;;;4957771;28;20478;-80
2023/11/18 03:41:49;;;;;;;79.47;30.75;;;6.00;99.90;;;;;;4978850;28;20504;-82
2023/11/18 03:44:17;;;;;;;75.07;29.25;;;6.00;99.90;;;;;;4979058;28;20034;-79
2023/11/18 03:46:43;;;;;;;68.47;29.55;;;6.00;99.90;;;;;;4979352;28;20056;-82
2023/11/18 03:49:09;;;;;;;73.40;27.40;;;6.00;99.90;;;;;;4989900;28;20875;-81
2023/11/18 03:51:36;;;;;;;88.30;32.33;;;6.00;99.90;;;;;;4993727;28;20596;-80
2023/11/18 03:54:02;;;;;;;84.07;32.92;;;6.00;99.90;;;;;;4975039;28;20404;-81
2023/11/18 03:56:28;;;;;;;81.38;31.15;;;6.00;99.90;;;;;;4976238;28;20044;-81
2023/11/18 03:58:55;;;;;;;92.32;33.00;;;6.10;99.90;;;;;;4991385;28;20042;-81
2023/11/18 04:01:22;;;;;;;86.80;31.80;;;6.00;99.90;;;;;;4993367;28;20073;-81
2023/11/18 04:03:50;;;;;;;130.45;40.65;;;6.00;99.90;;;;;;4979563;28;20033;-80
2023/11/18 04:06:17;;;;;;;117.63;37.83;;;6.00;99.90;;;;;;4977029;28;20029;-79
2023/11/18 04:08:45;;;;;;;94.70;35.08;;;6.00;99.90;;;;;;4993395;28;20041;-80
2023/11/18 04:11:13;;;;;;;109.00;37.83;;;6.00;99.90;;;;;;4968303;28;20064;-81
2023/11/18 04:13:44;;;;;;;209.38;41.85;;;6.00;99.90;;;;;;4978429;28;20048;-79
2023/11/18 04:16:15;;;;;;;110.65;36.78;;;6.00;99.90;;;;;;4992628;28;20034;-78
2023/11/18 04:18:42;;;;;;;99.78;34.25;;;6.00;99.90;;;;;;4991911;28;20044;-82
2023/11/18 04:21:10;;;;;;;149.43;39.55;;;6.00;99.90;;;;;;4960090;28;20042;-79
2023/11/18 04:23:38;;;;;;;98.40;36.35;;;6.00;99.90;;;;;;4979835;28;20053;-81
2023/11/18 04:26:05;;;;;;;73.03;30.73;;;6.00;99.90;;;;;;4991795;28;20035;-74
2023/11/18 04:28:31;;;;;;;81.05;29.67;;;6.00;99.90;;;;;;4977073;28;20042;-81
2023/11/18 04:30:58;;;;;;;107.70;39.08;;;6.10;99.90;;;;;;4994436;28;20030;-79
2023/11/18 04:33:24;;;;;;;202.85;49.97;;;6.00;99.90;;;;;;4995542;28;20363;-80
2023/11/18 04:35:51;;;;;;;92.32;36.35;;;6.00;99.90;;;;;;4968886;28;20046;-76
2023/11/18 04:38:18;;;;;;;90.75;33.25;;;6.00;99.90;;;;;;4975977;28;20412;-78
2023/11/18 04:40:45;;;;;;;104.05;37.92;;;6.00;99.90;;;;;;4968887;28;20060;-79
2023/11/18 04:43:12;;;;;;;96.65;33.92;;;6.00;99.90;;;;;;4989134;28;20034;-79
2023/11/18 04:45:41;;;;;;;101.38;37.75;;;6.00;99.90;;;;;;4959299;28;20033;-79
2023/11/18 04:48:08;;;;;;;99.00;38.15;;;6.00;99.90;;;;;;4976714;28;20038;-81
2023/11/18 04:50:34;;;;;;;113.53;37.63;;;6.00;99.90;;;;;;4974209;28;20030;-79
2023/11/18 04:53:02;;;;;;;101.75;39.22;;;6.10;99.90;;;;;;4992284;28;20041;-81
2023/11/18 04:55:29;;;;;;;115.03;40.33;;;6.10;99.90;;;;;;4994646;28;20477;-81
2023/11/18 04:57:55;;;;;;;137.13;43.22;;;6.10;99.90;;;;;;4997624;28;20037;-74
2023/11/18 05:00:21;;;;;;;108.82;37.33;;;6.10;99.90;;;;;;4995651;28;20048;-80
2023/11/18 05:02:48;;;;;;;87.53;32.95;;;6.10;99.90;;;;;;4981364;28;20045;-80
2023/11/18 05:05:16;;;;;;;87.72;35.42;;;6.10;99.90;;;;;;4996644;28;20390;-78
2023/11/18 05:07:42;;;;;;;104.05;40.90;;;6.10;99.90;;;;;;5000856;28;20026;-77
2023/11/18 05:10:10;;;;;;;103.80;41.55;;;6.10;99.90;;;;;;4981316;28;20500;-78
2023/11/18 05:12:37;;;;;;;97.18;36.78;;;6.10;99.90;;;;;;4995967;28;20030;-79
2023/11/18 05:15:06;;;;;;;82.05;32.67;;;6.10;99.90;;;;;;5009924;28;20034;-75
2023/11/18 05:17:32;;;;;;;90.53;35.53;;;6.20;99.90;;;;;;4994645;28;20065;-79
2023/11/18 05:20:00;;;;;;;78.65;31.65;;;6.20;99.90;;;;;;4996524;28;21123;-80
2023/11/18 05:22:26;;;;;;;104.03;34.30;;;6.20;99.90;;;;;;4997954;28;20077;-81
2023/11/18 05:24:53;;;;;;;89.07;34.13;;;6.20;99.90;;;;;;4980851;28;20486;-76
2023/11/18 05:27:19;;;;;;;97.63;37.60;;;6.20;99.90;;;;;;4998483;28;20041;-79
2023/11/18 05:29:54;;;;;;;88.10;35.55;;;6.20;99.90;;;;;;5000548;28;20401;-79
2023/11/18 05:32:22;;;;;;;79.43;32.65;;;6.20;99.90;;;;;;4982956;28;20030;-79
2023/11/18 05:34:53;;;;;;;76.70;31.92;;;6.20;99.90;;;;;;4983994;28;20041;-77
2023/11/18 05:37:21;;;;;;;93.90;37.75;;;6.30;99.90;;;;;;4983395;28;20041;-74
2023/11/18 05:39:49;;;;;;;76.63;33.40;;;6.30;99.90;;;;;;4994992;28;20053;-80
2023/11/18 05:42:15;;;;;;;94.45;36.22;;;6.30;99.90;;;;;;5008613;28;20098;-78
2023/11/18 05:44:42;;;;;;;101.65;39.30;;;6.20;99.90;;;;;;4996225;28;20038;-78
2023/11/18 05:47:11;;;;;;;112.93;45.60;;;6.20;99.90;;;;;;4958861;28;20044;-80
2023/11/18 05:49:38;;;;;;;107.07;46.70;;;6.30;99.90;;;;;;5008375;28;20037;-79
2023/11/18 05:52:05;;;;;;;96.50;41.55;;;6.20;99.90;;;;;;4979732;28;20053;-81
2023/11/18 05:54:31;;;;;;;104.40;40.33;;;6.20;99.90;;;;;;4996337;28;20052;-80
2023/11/18 05:56:59;;;;;;;92.50;40.30;;;6.20;99.90;;;;;;4997198;28;20061;-80
2023/11/18 05:59:26;;;;;;;92.57;39.42;;;6.20;99.90;;;;;;4996475;28;20034;-79
2023/11/18 06:01:53;;;;;;;110.22;47.00;;;6.20;99.90;;;;;;4983580;28;20455;-81
2023/11/18 06:04:20;;;;;;;100.10;43.58;;;6.20;99.90;;;;;;4973526;28;20491;-81
2023/11/18 06:06:47;;;;;;;91.60;39.85;;;6.20;99.90;;;;;;4989916;28;20033;-79
2023/11/18 06:09:20;;;;;;;104.22;43.30;;;6.20;99.90;;;;;;4996684;28;20038;-78
2023/11/18 06:11:49;;;;;;;90.57;39.60;;;6.20;99.90;;;;;;4971517;28;20038;-77
2023/11/18 06:14:16;;;;;;;92.82;39.15;;;6.20;99.90;;;;;;4971414;28;20049;-82
2023/11/18 06:16:43;;;;;;;95.55;42.30;;;6.20;99.90;;;;;;4993634;28;20060;-81
2023/11/18 06:19:09;;;;;;;89.15;40.20;;;6.20;99.90;;;;;;4979467;28;20057;-74
2023/11/18 06:21:36;;;;;;;84.68;39.38;;;6.20;99.90;;;;;;4980160;28;20033;-78
2023/11/18 06:24:05;;;;;;;97.28;43.92;;;6.20;99.90;;;;;;4962826;28;20033;-78
2023/11/18 06:26:33;;;;;;;97.65;44.53;;;6.20;99.90;;;;;;5010462;28;20044;-80
2023/11/18 06:29:00;;;;;;;89.97;40.45;;;6.20;99.90;;;;;;4995435;28;20407;-79
2023/11/18 06:31:26;;;;;;;98.32;44.33;;;6.20;99.90;;;;;;4998202;28;20025;-81
2023/11/18 06:33:52;;;;;;;113.18;47.83;;;6.20;99.90;;;;;;4999279;28;20030;-77
2023/11/18 06:36:23;;;;;;;100.63;48.00;;;6.20;99.90;;;;;;4977667;28;20410;-79
2023/11/18 06:38:51;;;;;;;112.90;52.75;;;6.20;99.90;;;;;;5010036;28;20037;-81
2023/11/18 06:41:19;;;;;;;106.47;49.70;;;6.20;99.90;;;;;;4996846;28;20036;-79
2023/11/18 06:46:31;;;;;;;98.55;46.00;;;6.20;99.90;;;;;;4993067;28;20049;-77
2023/11/18 06:48:59;;;;;;;94.82;45.25;;;6.20;99.90;;;;;;4971633;28;20077;-75
2023/11/18 06:51:27;;;;;;;84.82;41.05;;;6.20;99.90;;;;;;4994674;28;20030;-79
2023/11/18 06:53:57;;;;;;;91.28;44.30;;;6.10;99.90;;;;;;4995741;28;20034;-81
2023/11/18 06:56:24;;;;;;;112.70;48.38;;;6.20;99.90;;;;;;4994305;28;20041;-80
2023/11/18 06:58:51;;;;;;;116.43;53.60;;;6.20;99.90;;;;;;4996201;28;20535;-79
2023/11/18 07:01:18;;;;;;;112.95;49.05;;;6.10;99.90;;;;;;4996491;28;20030;-75
2023/11/18 07:03:48;;;;;;;99.75;45.28;;;6.10;99.90;;;;;;4996416;28;20038;-79
2023/11/18 07:06:26;;;;;;;97.78;47.42;;;6.10;99.90;;;;;;4982347;28;20093;-79
2023/11/18 07:08:55;;;;;;;85.20;41.33;;;6.10;99.90;;;;;;5008130;28;20064;-77
2023/11/18 07:11:21;;;;;;;73.15;37.17;;;6.10;99.90;;;;;;4993286;28;20033;-77
2023/11/18 07:13:49;;;;;;;80.90;38.75;;;6.10;99.90;;;;;;4996316;28;20021;-79
2023/11/18 07:16:15;;;;;;;69.00;35.88;;;6.10;99.90;;;;;;4977694;28;20041;-79
2023/11/18 07:18:42;;;;;;;59.28;31.23;;;6.10;99.90;;;;;;4992762;28;20028;-79
2023/11/18 07:21:09;;;;;;;72.13;37.90;;;6.20;99.90;;;;;;4986355;28;20429;-75
2023/11/18 07:23:35;;;;;;;72.88;36.60;;;6.10;99.90;;;;;;5001803;28;20037;-77
2023/11/18 07:26:03;;;;;;;80.63;40.38;;;6.20;99.90;;;;;;4995048;28;20034;-78
2023/11/18 07:28:31;;;;;;;85.60;42.22;;;6.10;99.90;;;;;;4952747;28;20040;-74
2023/11/18 07:30:58;;;;;;;66.03;36.30;;;6.10;99.90;;;;;;4992731;28;20050;-78
2023/11/18 07:33:24;;;;;;;75.88;38.75;;;6.10;99.90;;;;;;4977327;28;20443;-79
2023/11/18 07:35:50;;;;;;;70.82;37.67;;;6.10;99.90;;;;;;4993399;28;20046;-77
2023/11/18 07:38:20;;;;;;;63.05;33.58;;;6.10;99.90;;;;;;4961140;28;20627;-77
2023/11/18 07:40:47;;;;;;;60.50;29.58;;;6.10;99.90;;;;;;4993268;28;20564;-79
2023/11/18 07:43:14;;;;;;;48.05;26.45;;;6.20;99.90;;;;;;5006635;28;20045;-76
2023/11/18 07:45:42;;;;;;;72.05;34.25;;;6.20;99.90;;;;;;4994296;28;20754;-78
2023/11/18 07:48:17;;;;;;;55.92;28.65;;;6.20;99.90;;;;;;4993835;28;20488;-79
2023/11/18 07:50:49;;;;;;;60.88;31.08;;;6.20;99.90;;;;;;4993231;28;20045;-76
2023/11/18 07:53:16;;;;;;;53.53;27.55;;;6.20;99.90;;;;;;4963811;28;20048;-79
2023/11/18 07:55:42;;;;;;;52.22;27.30;;;6.20;99.90;;;;;;4991322;28;20034;-78
2023/11/18 07:58:12;;;;;;;50.38;25.58;;;6.20;99.90;;;;;;4992184;28;20049;-80
2023/11/18 08:00:44;;;;;;;62.72;30.73;;;6.20;99.90;;;;;;4994400;28;20033;-81
2023/11/18 08:03:11;;;;;;;59.00;31.27;;;6.30;99.90;;;;;;4995552;28;20388;-79
2023/11/18 08:05:39;;;;;;;61.10;30.77;;;6.30;99.90;;;;;;4934002;28;1153112;-79
2023/11/18 08:08:07;;;;;;;57.50;30.83;;;6.20;99.90;;;;;;5005664;28;20041;-80
2023/11/18 08:10:38;;;;;;;64.88;33.42;;;6.20;99.90;;;;;;4985653;28;20046;-79
2023/11/18 08:13:09;;;;;;;64.35;32.80;;;6.20;99.90;;;;;;4967193;28;20037;-81
2023/11/18 08:15:39;;;;;;;70.80;34.72;;;6.20;99.90;;;;;;4965193;28;20041;-78
2023/11/18 08:18:06;;;;;;;67.53;33.75;;;6.20;99.90;;;;;;4990578;28;20485;-77
2023/11/18 08:20:33;;;;;;;64.03;32.60;;;6.20;99.90;;;;;;4959638;28;20044;-80
2023/11/18 08:22:59;;;;;;;69.35;35.03;;;6.20;99.90;;;;;;4992059;28;20396;-80
2023/11/18 08:25:26;;;;;;;68.85;33.38;;;6.20;99.90;;;;;;4992470;28;20374;-79
2023/11/18 08:27:52;;;;;;;60.33;31.80;;;6.20;99.90;;;;;;4996109;28;20038;-79
2023/11/18 08:30:20;;;;;;;57.05;28.25;;;6.20;99.90;;;;;;4974410;28;20044;-81
2023/11/18 08:32:48;;;;;;;68.03;33.67;;;6.20;99.90;;;;;;4990914;28;20032;-80
2023/11/18 08:35:15;;;;;;;59.03;29.63;;;6.30;99.90;;;;;;4968275;28;22274;-80
2023/11/18 08:37:43;;;;;;;57.55;30.02;;;6.30;99.90;;;;;;4964135;28;20034;-85
2023/11/18 08:40:14;;;;;;;58.47;29.00;;;6.30;99.90;;;;;;4987324;28;20038;-80
2023/11/18 08:42:47;;;;;;;56.00;28.05;;;6.30;99.90;;;;;;4987073;28;20025;-78
2023/11/18 08:45:18;;;;;;;53.97;28.23;;;6.30;99.90;;;;;;4991007;28;20148;-79
2023/11/18 08:47:48;;;;;;;63.15;28.13;;;6.40;99.90;;;;;;4990668;28;20045;-80
2023/11/18 08:50:16;;;;;;;63.35;29.80;;;6.40;99.90;;;;;;4986598;28;20056;-79
2023/11/18 08:52:46;;;;;;;71.55;30.58;;;6.40;99.90;;;;;;4973006;28;20045;-78
2023/11/18 08:55:20;;;;;;;61.92;29.60;;;6.50;99.90;;;;;;4968659;28;20045;-80
2023/11/18 08:57:57;;;;;;;62.13;25.67;;;6.50;99.90;;;;;;4991133;28;20042;-79
2023/11/18 09:03:24;;;;;;;55.63;24.85;;;6.60;99.90;;;;;;4993274;28;20040;-75
2023/11/18 09:05:59;;;;;;;56.75;24.38;;;6.70;99.90;;;;;;4989978;28;20034;-81
2023/11/18 09:08:38;;;;;;;60.03;24.98;;;6.70;99.90;;;;;;4983784;28;20041;-77
2023/11/18 09:11:07;;;;;;;68.55;27.80;;;6.80;99.90;;;;;;4955940;28;20038;-80
2023/11/18 09:13:37;;;;;;;55.92;23.83;;;6.80;99.90;;;;;;4975169;28;20412;-77
2023/11/18 09:16:11;;;;;;;78.10;30.52;;;6.90;99.90;;;;;;4966195;28;20049;-82
2023/11/18 09:18:39;;;;;;;77.85;31.00;;;6.90;99.90;;;;;;4995269;28;20469;-76
2023/11/18 09:21:06;;;;;;;77.70;31.02;;;6.90;99.90;;;;;;4996263;28;22788;-81
2023/11/18 09:23:34;;;;;;;67.63;28.33;;;6.90;99.90;;;;;;4994442;28;20018;-77
2023/11/18 09:26:02;;;;;;;69.30;28.30;;;6.90;99.90;;;;;;4975870;28;20034;-73
2023/11/18 09:28:29;;;;;;;69.18;29.77;;;6.90;99.90;;;;;;4993833;28;20037;-82
2023/11/18 09:31:02;;;;;;;56.53;23.55;;;7.00;99.90;;;;;;4993038;28;20052;-80
2023/11/18 09:33:34;;;;;;;60.78;25.40;;;7.00;99.90;;;;;;4971008;28;20393;-77
2023/11/18 09:36:08;;;;;;;59.97;26.63;;;7.10;99.90;;;;;;4989907;28;20053;-80
2023/11/18 09:38:36;;;;;;;70.95;27.30;;;7.10;99.90;;;;;;4992452;28;20296;-80
2023/11/18 09:41:06;;;;;;;70.85;27.98;;;7.10;99.90;;;;;;4996444;28;20037;-77
2023/11/18 09:43:42;;;;;;;61.15;26.83;;;7.20;99.90;;;;;;5000300;28;20033;-74
2023/11/18 09:46:12;;;;;;;61.47;25.73;;;7.20;99.90;;;;;;4992264;28;20030;-80
2023/11/18 09:48:46;;;;;;;61.53;23.98;;;7.20;99.90;;;;;;5010752;28;20049;-81
2023/11/18 09:51:24;;;;;;;64.82;27.83;;;7.30;99.90;;;;;;5010443;28;20041;-78
2023/11/18 09:53:52;;;;;;;55.83;23.08;;;7.30;99.90;;;;;;4997052;28;20041;-78
2023/11/18 09:56:39;;;;;;;61.28;26.05;;;7.30;99.90;;;;;;4995400;28;20060;-78
2023/11/18 09:59:23;;;;;;;58.53;24.90;;;7.30;99.90;;;;;;4985562;28;21313;-83
2023/11/18 10:01:53;;;;;;;45.90;20.48;;;7.30;99.90;;;;;;4994015;28;20038;-79
2023/11/18 10:04:20;;;;;;;53.60;21.95;;;7.30;99.90;;;;;;4996269;28;20038;-80
2023/11/18 10:06:53;;;;;;;54.45;23.88;;;7.40;99.90;;;;;;4988405;28;20400;-80
2023/11/18 10:09:28;;;;;;;62.47;24.77;;;7.30;99.90;;;;;;4997389;28;20034;-82
2023/11/18 10:12:05;;;;;;;55.45;23.63;;;7.30;99.90;;;;;;4985884;28;20038;-80
2023/11/18 10:14:35;;;;;;;54.22;22.27;;;7.30;99.90;;;;;;4976726;28;21393;-80
2023/11/18 10:17:09;;;;;;;46.00;21.25;;;7.30;99.90;;;;;;5009388;28;20034;-80
2023/11/18 10:19:59;;;;;;;47.30;20.73;;;7.30;99.90;;;;;;4967973;28;20042;-76
2023/11/18 10:22:32;;;;;;;47.75;21.48;;;7.30;99.90;;;;;;4977234;28;20034;-78
2023/11/18 10:25:00;;;;;;;51.35;21.75;;;7.30;99.90;;;;;;4991483;28;20036;-76
2023/11/18 10:27:28;;;;;;;44.58;18.50;;;7.30;99.90;;;;;;4975317;28;20022;-79
2023/11/18 10:30:02;;;;;;;50.22;23.45;;;7.30;99.90;;;;;;4994666;28;20661;-78
2023/11/18 10:32:35;;;;;;;47.28;20.65;;;7.30;99.90;;;;;;4985536;28;20864;-81
2023/11/18 10:35:05;;;;;;;40.60;17.55;;;7.30;99.90;;;;;;4993772;28;20397;-78
2023/11/18 10:37:31;;;;;;;44.45;20.08;;;7.40;99.90;;;;;;4961188;28;20593;-78
2023/11/18 10:39:57;;;;;;;50.33;21.75;;;7.30;99.90;;;;;;4956491;28;20041;-79
2023/11/18 10:42:30;;;;;;;55.53;29.27;;;7.40;99.90;;;;;;4984789;28;20030;-79
2023/11/18 10:45:03;;;;;;;47.15;23.52;;;7.40;99.90;;;;;;4994095;28;20036;-76
2023/11/18 10:47:41;;;;;;;55.97;25.33;;;7.30;99.90;;;;;;4991545;28;20036;-78
2023/11/18 10:50:09;;;;;;;48.60;24.45;;;7.30;99.90;;;;;;4987995;28;20060;-77
2023/11/18 10:52:37;;;;;;;46.67;22.83;;;7.30;99.90;;;;;;4989280;28;20041;-76
2023/11/18 10:55:11;;;;;;;45.35;19.88;;;7.20;99.90;;;;;;4958982;28;20072;-77
2023/11/18 10:57:38;;;;;;;38.08;17.73;;;7.20;99.90;;;;;;4971368;28;20038;-77
2023/11/18 11:00:19;;;;;;;40.15;18.30;;;7.20;99.90;;;;;;4968480;28;20042;-76
2023/11/18 11:02:49;;;;;;;40.25;17.75;;;7.20;99.90;;;;;;4991929;28;20037;-77
2023/11/18 11:05:32;;;;;;;37.03;17.27;;;7.20;99.90;;;;;;4973407;28;20046;-78
2023/11/18 11:08:02;;;;;;;37.58;19.17;;;7.20;99.90;;;;;;4994482;28;20033;-78
2023/11/18 11:10:29;;;;;;;33.85;16.30;;;7.20;99.90;;;;;;4992105;28;20038;-76
2023/11/18 11:13:01;;;;;;;41.88;18.77;;;7.30;99.90;;;;;;4955829;28;20049;-75
2023/11/18 11:15:32;;;;;;;46.60;20.20;;;7.20;99.90;;;;;;4989078;28;20041;-76
2023/11/18 11:18:09;;;;;;;37.20;17.65;;;7.30;99.90;;;;;;4993156;28;20025;-77
2023/11/18 11:20:48;;;;;;;33.85;16.67;;;7.30;99.90;;;;;;4990523;28;20037;-77
2023/11/18 11:23:35;;;;;;;33.47;16.45;;;7.20;99.90;;;;;;4977436;28;20030;-76
2023/11/18 11:26:34;;;;;;;33.38;15.98;;;7.30;99.90;;;;;;5001292;28;20033;-77
2023/11/18 11:29:22;;;;;;;47.38;22.10;;;7.30;99.90;;;;;;4993146;28;20041;-77
2023/11/18 11:32:06;;;;;;;42.97;21.92;;;7.30;99.90;;;;;;4994294;28;20069;-77
2023/11/18 11:34:35;;;;;;;44.05;20.85;;;7.30;99.90;;;;;;4992532;28;20612;-77
2023/11/18 11:37:05;;;;;;;32.53;17.15;;;7.20;99.90;;;;;;4995309;28;20036;-77
2023/11/18 11:39:36;;;;;;;40.10;18.58;;;7.30;99.90;;;;;;4976675;28;20040;-79
2023/11/18 11:42:09;;;;;;;41.45;19.00;;;7.30;99.90;;;;;;5005431;28;20026;-77
2023/11/18 11:44:42;;;;;;;38.63;18.90;;;7.30;99.90;;;;;;4989890;28;20040;-80
2023/11/18 11:47:15;;;;;;;34.35;17.30;;;7.30;99.90;;;;;;4993586;28;20543;-76
2023/11/18 11:49:57;;;;;;;36.53;16.83;;;7.30;99.90;;;;;;4959595;28;20052;-77
2023/11/18 11:52:30;;;;;;;37.22;16.35;;;7.30;99.90;;;;;;4991549;28;20036;-78
2023/11/18 11:55:12;;;;;;;43.63;19.23;;;7.30;99.90;;;;;;4973001;28;20046;-77
2023/11/18 11:57:41;;;;;;;43.22;19.83;;;7.30;99.90;;;;;;4993703;28;20041;-77
2023/11/18 12:00:17;;;;;;;40.63;19.63;;;7.30;99.90;;;;;;4991625;28;20042;-75
2023/11/18 12:02:54;;;;;;;36.00;18.42;;;7.30;99.90;;;;;;4974889;28;20052;-79
2023/11/18 12:05:25;;;;;;;39.58;19.75;;;7.30;99.90;;;;;;4993694;28;20053;-75
2023/11/18 12:07:55;;;;;;;45.05;20.70;;;7.40;99.90;;;;;;4991645;28;20477;-77
2023/11/18 12:10:28;;;;;;;41.28;21.02;;;7.40;99.90;;;;;;4982024;28;20042;-77
2023/11/18 12:13:15;;;;;;;43.70;20.20;;;7.30;99.90;;;;;;4952138;28;20036;-76
2023/11/18 12:16:03;;;;;;;32.97;16.95;;;7.40;99.90;;;;;;4972188;28;20049;-76
2023/11/18 12:18:33;;;;;;;45.10;20.38;;;7.40;99.90;;;;;;4971299;28;20041;-78
2023/11/18 12:21:03;;;;;;;35.10;18.20;;;7.40;99.90;;;;;;4990367;28;20045;-74
2023/11/18 12:23:31;;;;;;;30.58;16.23;;;7.40;99.90;;;;;;4961400;28;20038;-77
2023/11/18 12:25:58;;;;;;;34.63;17.35;;;7.40;99.90;;;;;;4992607;28;20038;-74
2023/11/18 12:28:34;;;;;;;39.83;21.10;;;7.40;99.90;;;;;;4982755;28;20038;-77
2023/11/18 12:31:05;;;;;;;56.53;27.88;;;7.40;99.90;;;;;;4991710;28;20041;-75
2023/11/18 12:33:53;;;;;;;56.63;26.67;;;7.50;99.90;;;;;;4993950;28;20137;-77
2023/11/18 12:36:39;;;;;;;43.95;22.85;;;7.50;99.90;;;;;;4994270;28;20682;-77
2023/11/18 12:39:20;;;;;;;47.67;23.52;;;7.50;99.90;;;;;;4975847;28;20038;-77
2023/11/18 12:42:11;;;;;;;33.47;18.50;;;7.50;99.90;;;;;;4991391;28;20042;-76
2023/11/18 12:45:20;;;;;;;37.92;20.25;;;7.50;99.90;;;;;;4973558;28;20033;-76
2023/11/18 12:47:48;;;;;;;37.25;19.42;;;7.50;99.90;;;;;;4957514;28;20045;-75
2023/11/18 12:50:24;;;;;;;32.25;17.63;;;7.50;99.90;;;;;;4970474;28;20065;-76
2023/11/18 12:52:53;;;;;;;35.90;17.83;;;7.60;99.90;;;;;;4954494;28;20524;-76
2023/11/18 12:55:21;;;;;;;32.17;16.20;;;7.50;99.90;;;;;;4969577;28;20042;-77